createdAt,value
2017-10-10T00:00:38.275Z,12.50
2017-10-10T00:03:39.959Z,12.10
2017-10-10T00:06:42.190Z,12.20
2017-10-10T00:09:43.727Z,12.30
2017-10-10T00:12:45.324Z,11.40
2017-10-10T00:15:46.861Z,11.90
2017-10-10T00:18:48.422Z,11.90
2017-10-10T00:21:49.952Z,11.80
2017-10-10T00:24:51.505Z,11.90
2017-10-10T00:27:52.995Z,12.10
2017-10-10T00:30:54.640Z,12.20
2017-10-10T00:33:56.197Z,11.80
2017-10-10T00:36:57.717Z,12.20
2017-10-10T00:39:59.268Z,11.80
2017-10-10T00:43:00.809Z,11.30
2017-10-10T00:46:02.356Z,11.40
2017-10-10T00:49:04.642Z,12.30
2017-10-10T00:52:06.213Z,12.40
2017-10-10T00:55:07.807Z,12.10
2017-10-10T00:58:09.335Z,12.10
2017-10-10T01:01:11.031Z,12.20
2017-10-10T01:04:12.545Z,11.00
2017-10-10T01:07:14.136Z,12.00
2017-10-10T01:10:15.681Z,12.00
2017-10-10T01:13:18.015Z,12.30
2017-10-10T01:16:19.600Z,12.00
2017-10-10T01:19:21.265Z,12.00
2017-10-10T01:22:22.856Z,11.00
2017-10-10T01:25:25.111Z,12.30
2017-10-10T01:28:27.422Z,12.30
2017-10-10T01:31:29.010Z,12.20
2017-10-10T01:34:30.620Z,11.60
2017-10-10T01:37:32.184Z,12.50
2017-10-10T01:40:33.860Z,12.00
2017-10-10T01:43:35.468Z,12.00
2017-10-10T01:46:37.721Z,12.40
2017-10-10T01:49:39.357Z,12.40
2017-10-10T01:52:40.875Z,11.50
2017-10-10T01:55:42.514Z,12.00
2017-10-10T01:58:44.829Z,12.40
2017-10-10T02:01:46.370Z,12.20
2017-10-10T02:04:48.171Z,12.20
2017-10-10T02:07:49.683Z,11.90
2017-10-10T02:10:51.278Z,12.30
2017-10-10T02:13:52.840Z,12.00
2017-10-10T02:20:02.566Z,12.00
2017-10-10T02:23:04.091Z,11.40
2017-10-10T02:26:06.379Z,12.40
2017-10-10T02:29:07.916Z,11.10
2017-10-10T02:32:10.200Z,12.40
2017-10-10T02:35:11.701Z,11.90
2017-10-10T02:38:13.295Z,12.20
2017-10-10T02:41:15.564Z,12.40
2017-10-10T02:44:17.071Z,12.40
2017-10-10T02:47:18.692Z,13.00
2017-10-10T02:50:22.106Z,12.50
2017-10-10T02:53:23.697Z,12.50
2017-10-10T02:56:25.225Z,12.20
2017-10-10T02:59:26.732Z,11.50
2017-10-10T03:02:28.249Z,12.00
2017-10-10T03:05:29.803Z,11.70
2017-10-10T03:08:31.341Z,12.30
2017-10-10T03:11:33.059Z,12.20
2017-10-10T03:14:34.622Z,12.30
2017-10-10T03:17:36.136Z,12.10
2017-10-10T03:20:37.664Z,11.90
2017-10-10T03:23:39.132Z,12.30
2017-10-10T03:26:40.694Z,12.30
2017-10-10T03:29:42.288Z,13.40
2017-10-10T03:32:44.525Z,12.40
2017-10-10T03:35:46.079Z,12.40
2017-10-10T03:38:48.483Z,12.20
2017-10-10T03:41:50.788Z,12.50
2017-10-10T03:44:53.034Z,12.10
2017-10-10T03:47:55.345Z,12.50
2017-10-10T03:50:56.889Z,12.30
2017-10-10T03:53:58.400Z,12.40
2017-10-10T03:56:59.999Z,12.20
2017-10-10T04:00:02.524Z,13.50
2017-10-10T04:03:04.088Z,12.70
2017-10-10T04:06:05.665Z,11.70
2017-10-10T04:09:08.030Z,12.50
2017-10-10T04:12:09.662Z,12.40
2017-10-10T04:15:11.228Z,12.40
2017-10-10T04:18:12.748Z,11.70
2017-10-10T04:21:14.338Z,12.10
2017-10-10T04:24:16.627Z,12.60
2017-10-10T04:27:18.845Z,12.50
2017-10-10T04:30:20.464Z,12.30
2017-10-10T04:33:22.839Z,12.50
2017-10-10T04:36:24.399Z,12.60
2017-10-10T04:39:26.699Z,12.60
2017-10-10T04:42:28.247Z,12.70
2017-10-10T04:45:29.863Z,12.40
2017-10-10T04:48:32.108Z,12.70
2017-10-10T04:51:33.622Z,12.60
2017-10-10T04:54:35.157Z,11.70
2017-10-10T04:57:37.524Z,12.60
2017-10-10T05:00:39.822Z,12.60
2017-10-10T05:03:41.314Z,12.90
2017-10-10T05:06:42.893Z,12.60
2017-10-10T05:09:44.393Z,12.60
2017-10-10T05:12:45.976Z,13.00
2017-10-10T05:15:47.503Z,12.50
2017-10-10T05:18:49.057Z,11.80
2017-10-10T05:21:50.569Z,12.20
2017-10-10T05:24:52.168Z,12.30
2017-10-10T05:27:53.717Z,12.30
2017-10-10T05:30:55.321Z,11.60
2017-10-10T05:33:56.855Z,12.30
2017-10-10T05:36:58.435Z,12.60
2017-10-10T05:40:00.012Z,12.70
2017-10-10T05:43:02.313Z,12.60
2017-10-10T05:46:03.903Z,13.20
2017-10-10T05:49:05.414Z,12.10
2017-10-10T05:52:07.000Z,12.90
2017-10-10T05:55:08.508Z,13.80
2017-10-10T05:58:10.096Z,12.30
2017-10-10T06:01:11.640Z,12.40
2017-10-10T06:04:13.238Z,12.30
2017-10-10T06:07:14.816Z,12.00
2017-10-10T06:10:17.121Z,12.50
2017-10-10T06:13:18.641Z,12.60
2017-10-10T06:16:23.521Z,12.50
2017-10-10T06:19:25.117Z,12.40
2017-10-10T06:22:27.598Z,11.70
2017-10-10T06:25:29.307Z,12.80
2017-10-10T06:28:30.881Z,13.30
2017-10-10T06:31:33.488Z,12.20
2017-10-10T06:34:35.121Z,11.20
2017-10-10T06:37:36.708Z,13.00
2017-10-10T06:40:38.282Z,13.60
2017-10-10T06:43:40.493Z,12.70
2017-10-10T06:46:42.069Z,12.50
2017-10-10T06:49:43.653Z,11.50
2017-10-10T06:52:45.173Z,12.40
2017-10-10T06:55:46.700Z,12.00
2017-10-10T06:58:50.490Z,11.90
2017-10-10T07:01:54.313Z,12.50
2017-10-10T07:04:58.711Z,11.50
2017-10-10T07:08:01.056Z,12.70
2017-10-10T07:11:03.911Z,12.40
2017-10-10T07:14:05.469Z,12.00
2017-10-10T07:17:07.047Z,12.50
2017-10-10T07:34:12.465Z,12.70
2017-10-10T07:37:25.337Z,13.70
2017-10-10T07:40:35.929Z,12.80
2017-10-10T07:43:38.318Z,13.00
2017-10-10T07:46:40.460Z,12.00
2017-10-10T07:49:42.049Z,12.40
2017-10-10T07:52:43.615Z,12.50
2017-10-10T07:55:45.170Z,12.50
2017-10-10T07:58:46.659Z,14.00
2017-10-10T08:01:48.245Z,13.00
2017-10-10T08:04:50.754Z,12.50
2017-10-10T08:07:52.395Z,13.90
2017-10-10T08:10:53.975Z,11.90
2017-10-10T08:13:55.506Z,12.70
2017-10-10T08:16:57.041Z,13.00
2017-10-10T08:19:58.596Z,12.60
2017-10-10T08:23:00.176Z,12.70
2017-10-10T08:26:05.570Z,12.60
2017-10-10T08:29:07.683Z,12.70
2017-10-10T08:32:09.372Z,12.60
2017-10-10T08:35:11.656Z,13.00
2017-10-10T08:38:13.247Z,12.80
2017-10-10T08:41:14.759Z,12.40
2017-10-10T08:44:16.301Z,12.70
2017-10-10T08:47:18.530Z,13.20
2017-10-10T08:50:20.046Z,12.90
2017-10-10T08:53:22.384Z,13.30
2017-10-10T08:56:23.975Z,13.40
2017-10-10T08:59:26.284Z,13.40
2017-10-10T09:02:27.843Z,14.20
2017-10-10T09:05:29.377Z,12.80
2017-10-10T09:08:30.906Z,13.00
2017-10-10T09:11:32.593Z,13.10
2017-10-10T09:14:34.062Z,13.40
2017-10-10T09:17:35.683Z,13.10
2017-10-10T09:20:37.976Z,13.60
2017-10-10T09:23:39.566Z,13.70
2017-10-10T09:26:41.349Z,13.70
2017-10-10T09:29:42.881Z,13.40
2017-10-10T09:32:44.412Z,12.90
2017-10-10T09:35:45.965Z,13.50
2017-10-10T09:41:56.736Z,13.80
2017-10-10T09:44:59.040Z,13.60
2017-10-10T09:48:00.663Z,13.20
2017-10-10T09:51:03.595Z,13.70
2017-10-10T09:54:05.185Z,13.90
2017-10-10T09:57:06.730Z,13.90
2017-10-10T10:00:08.278Z,14.20
2017-10-10T10:03:09.832Z,13.40
2017-10-10T10:06:11.357Z,14.90
2017-10-10T10:09:12.885Z,13.10
2017-10-10T10:12:14.479Z,13.70
2017-10-10T10:15:16.021Z,13.50
2017-10-10T10:18:17.594Z,14.40
2017-10-10T10:21:19.836Z,12.70
2017-10-10T10:24:21.348Z,14.00
2017-10-10T10:27:22.916Z,13.40
2017-10-10T10:30:26.329Z,14.10
2017-10-10T10:33:27.878Z,14.30
2017-10-10T10:36:30.396Z,13.70
2017-10-10T10:39:31.962Z,13.90
2017-10-10T10:42:33.521Z,14.10
2017-10-10T10:45:35.100Z,14.20
2017-10-10T10:48:37.295Z,14.10
2017-10-10T10:51:39.598Z,14.60
2017-10-10T10:54:44.182Z,14.80
2017-10-10T10:57:46.546Z,14.40
2017-10-10T11:00:48.712Z,14.30
2017-10-10T11:03:51.741Z,14.30
2017-10-10T11:06:54.566Z,16.20
2017-10-10T11:09:56.942Z,13.70
2017-10-10T11:12:58.537Z,12.80
2017-10-10T11:16:00.861Z,14.20
2017-10-10T11:19:02.488Z,14.10
2017-10-10T11:22:04.724Z,15.10
2017-10-10T11:25:09.794Z,14.40
2017-10-10T11:28:13.381Z,14.20
2017-10-10T11:31:14.989Z,15.40
2017-10-10T11:34:16.550Z,15.00
2017-10-10T11:37:19.546Z,14.10
2017-10-10T11:40:21.284Z,14.20
2017-10-10T11:43:23.492Z,14.90
2017-10-10T11:46:25.945Z,14.50
2017-10-10T11:49:27.493Z,14.30
2017-10-10T11:52:36.200Z,14.40
2017-10-10T11:55:37.787Z,14.60
2017-10-10T11:58:40.327Z,14.80
2017-10-10T12:01:47.737Z,14.40
2017-10-10T12:04:50.758Z,13.90
2017-10-10T12:07:53.775Z,14.60
2017-10-10T12:10:55.493Z,14.50
2017-10-10T12:13:59.262Z,14.60
2017-10-10T12:17:00.906Z,13.80
2017-10-10T12:20:05.871Z,14.30
2017-10-10T12:23:11.202Z,14.90
2017-10-10T12:26:13.290Z,13.70
2017-10-10T12:29:16.603Z,15.60
2017-10-10T12:32:19.788Z,15.30
2017-10-10T12:35:24.280Z,15.10
2017-10-10T12:38:25.932Z,15.20
2017-10-10T12:41:31.408Z,14.10
2017-10-10T12:44:33.519Z,15.20
2017-10-10T12:47:35.871Z,14.90
2017-10-10T12:50:37.568Z,14.60
2017-10-10T12:53:39.678Z,14.20
2017-10-10T12:56:57.733Z,14.20
2017-10-10T12:59:59.205Z,16.00
2017-10-10T13:03:01.539Z,14.80
2017-10-10T13:06:04.616Z,15.30
2017-10-10T13:09:06.116Z,14.30
2017-10-10T13:12:08.514Z,14.60
2017-10-10T13:15:10.008Z,14.50
2017-10-10T13:18:11.526Z,14.20
2017-10-10T13:21:13.021Z,14.40
2017-10-10T13:24:14.558Z,14.10
2017-10-10T13:27:16.074Z,15.70
2017-10-10T13:30:18.393Z,14.50
2017-10-10T13:33:19.929Z,14.20
2017-10-10T13:36:21.537Z,14.10
2017-10-10T13:39:23.138Z,13.50
2017-10-10T13:42:24.645Z,13.90
2017-10-10T13:45:26.176Z,14.50
2017-10-10T13:48:27.663Z,14.30
2017-10-10T13:51:29.934Z,14.60
2017-10-10T13:54:32.147Z,14.60
2017-10-10T13:57:33.788Z,15.10
2017-10-10T14:00:35.347Z,15.20
2017-10-10T14:03:36.910Z,14.10
2017-10-10T14:06:38.502Z,14.50
2017-10-10T14:12:48.268Z,14.60
2017-10-10T14:15:49.856Z,14.30
2017-10-10T14:18:52.241Z,14.60
2017-10-10T14:21:53.736Z,14.40
2017-10-10T14:24:55.270Z,14.10
2017-10-10T14:27:56.840Z,14.20
2017-10-10T14:30:58.377Z,14.30
2017-10-10T14:33:59.942Z,14.30
2017-10-10T14:37:01.483Z,14.10
2017-10-10T14:40:03.592Z,14.20
2017-10-10T14:43:05.085Z,13.70
2017-10-10T14:46:07.461Z,14.60
2017-10-10T14:49:09.683Z,14.30
2017-10-10T14:52:11.215Z,14.10
2017-10-10T14:55:12.814Z,15.00
2017-10-10T14:58:14.342Z,14.00
2017-10-10T15:01:15.873Z,14.20
2017-10-10T15:04:17.379Z,13.80
2017-10-10T15:07:18.934Z,15.30
2017-10-10T15:10:20.458Z,14.80
2017-10-10T15:13:22.051Z,13.70
2017-10-10T15:16:23.617Z,13.90
2017-10-10T15:19:25.812Z,14.10
2017-10-10T15:22:27.372Z,13.90
2017-10-10T15:25:28.871Z,13.50
2017-10-10T15:28:30.469Z,13.60
2017-10-10T15:31:31.989Z,13.80
2017-10-10T15:34:33.533Z,15.40
2017-10-10T15:37:35.046Z,13.30
2017-10-10T15:40:36.597Z,14.20
2017-10-10T15:43:39.193Z,13.70
2017-10-10T15:46:41.282Z,13.90
2017-10-10T15:49:42.934Z,14.10
2017-10-10T15:52:44.410Z,13.20
2017-10-10T15:55:46.017Z,14.90
2017-10-10T15:58:47.672Z,13.60
2017-10-10T16:01:49.875Z,13.70
2017-10-10T16:04:52.495Z,13.40
2017-10-10T16:07:54.071Z,14.40
2017-10-10T16:10:55.600Z,13.40
2017-10-10T16:13:57.937Z,14.10
2017-10-10T16:16:59.561Z,13.90
2017-10-10T16:20:01.052Z,14.20
2017-10-10T16:23:02.709Z,14.10
2017-10-10T16:26:04.350Z,14.70
2017-10-10T16:29:05.976Z,13.40
2017-10-10T16:32:08.387Z,14.10
2017-10-10T16:35:10.007Z,13.30
2017-10-10T16:41:20.801Z,14.20
2017-10-10T16:44:23.125Z,14.10
2017-10-10T16:47:24.683Z,13.70
2017-10-10T16:50:27.089Z,14.40
2017-10-10T16:53:29.473Z,14.10
2017-10-10T16:56:30.949Z,15.40
2017-10-10T16:59:33.268Z,13.40
2017-10-10T17:02:34.826Z,14.20
2017-10-10T17:05:36.330Z,14.50
2017-10-10T17:08:38.656Z,13.20
2017-10-10T17:11:49.290Z,14.00
2017-10-10T17:14:57.094Z,13.40
2017-10-10T17:17:59.280Z,14.40
2017-10-10T17:21:00.824Z,13.70
2017-10-10T17:24:02.427Z,14.60
2017-10-10T17:27:05.154Z,13.70
2017-10-10T17:30:08.517Z,13.50
2017-10-10T17:33:22.608Z,14.00
2017-10-10T17:36:26.136Z,14.10
2017-10-10T17:43:08.980Z,14.10
2017-10-10T17:46:14.828Z,14.10
2017-10-10T17:49:19.466Z,14.20
2017-10-10T17:52:26.479Z,14.20
2017-10-10T18:00:50.342Z,14.70
2017-10-10T18:05:31.434Z,14.80
2017-10-10T18:08:33.592Z,14.10
2017-10-10T18:11:40.076Z,13.80
2017-10-10T18:14:50.123Z,14.20
2017-10-10T18:17:54.163Z,14.10
2017-10-10T18:21:04.586Z,14.20
2017-10-10T18:24:06.553Z,13.80
2017-10-10T18:27:15.192Z,14.10
2017-10-10T18:30:33.346Z,14.20
2017-10-10T18:33:58.914Z,13.60
2017-10-10T18:55:29.086Z,14.20
2017-10-10T18:58:32.416Z,14.20
2017-10-10T19:03:18.674Z,14.20
2017-10-10T19:06:24.858Z,14.80
2017-10-10T19:23:53.435Z,14.20
2017-10-10T19:26:55.144Z,13.80
2017-10-10T19:30:05.345Z,14.10
2017-10-10T19:33:07.967Z,14.10
2017-10-10T19:36:09.618Z,13.70
2017-10-10T19:39:15.018Z,14.10
2017-10-10T19:42:16.633Z,14.60
2017-10-10T19:45:25.380Z,14.90
2017-10-10T19:55:47.524Z,14.20
2017-10-10T19:58:50.047Z,13.90
2017-10-10T20:01:51.563Z,13.80
2017-10-10T20:04:53.534Z,15.60
2017-10-10T20:07:55.565Z,13.50
2017-10-10T20:10:57.837Z,14.30
2017-10-10T20:13:59.410Z,13.50
2017-10-10T20:17:01.786Z,14.40
2017-10-10T20:20:04.086Z,14.40
2017-10-10T20:23:06.349Z,14.30
2017-10-10T20:26:07.917Z,14.20
2017-10-10T20:29:10.421Z,13.70
2017-10-10T20:32:11.967Z,14.00
2017-10-10T20:38:21.734Z,14.10
2017-10-10T20:41:23.314Z,13.90
2017-10-10T20:44:24.853Z,14.10
2017-10-10T20:47:26.559Z,13.80
2017-10-10T20:50:28.450Z,13.70
2017-10-10T20:53:30.076Z,14.00
2017-10-10T20:56:31.610Z,13.90
2017-10-10T20:59:33.227Z,13.90
2017-10-10T21:02:35.551Z,14.40
2017-10-10T21:05:37.876Z,14.30
2017-10-10T21:08:39.444Z,13.00
2017-10-10T21:11:40.970Z,13.60
2017-10-10T21:14:42.544Z,13.50
2017-10-10T21:17:44.080Z,14.20
2017-10-10T21:20:45.759Z,13.10
2017-10-10T21:23:47.288Z,13.90
2017-10-10T21:26:48.881Z,14.00
2017-10-10T21:29:50.430Z,14.00
2017-10-10T21:32:51.912Z,13.70
2017-10-10T21:35:54.202Z,14.40
2017-10-10T21:38:55.694Z,14.20
2017-10-10T21:41:57.216Z,14.00
2017-10-10T21:48:07.149Z,13.90
2017-10-10T21:51:08.644Z,14.20
2017-10-10T21:54:10.168Z,13.80
2017-10-10T21:57:12.534Z,14.40
2017-10-10T22:00:14.964Z,14.40
2017-10-10T22:07:21.732Z,14.80
2017-10-10T22:10:24.025Z,14.40
2017-10-10T22:16:33.803Z,14.70
2017-10-10T22:19:35.453Z,13.80
2017-10-10T22:22:36.969Z,14.00
2017-10-10T22:25:39.281Z,14.40
2017-10-10T22:28:40.781Z,14.20
2017-10-10T22:31:43.068Z,14.30
2017-10-10T22:34:45.455Z,14.20
2017-10-10T22:37:47.063Z,15.40
2017-10-10T22:40:48.684Z,13.90
2017-10-10T22:43:50.175Z,13.40
2017-10-10T22:46:51.794Z,13.90
2017-10-10T22:53:02.273Z,14.20
2017-10-10T22:56:03.898Z,13.00
2017-10-10T22:59:05.444Z,14.00
2017-10-10T23:02:07.450Z,14.70
2017-10-10T23:05:09.038Z,13.90
2017-10-10T23:08:10.552Z,13.70
2017-10-10T23:11:12.184Z,14.00
2017-10-10T23:14:13.700Z,13.90
2017-10-10T23:17:15.236Z,13.60
2017-10-10T23:20:16.745Z,14.00
2017-10-10T23:23:18.281Z,13.80
2017-10-10T23:26:19.833Z,15.10
2017-10-10T23:29:21.341Z,13.60
2017-10-10T23:32:22.807Z,14.70
2017-10-10T23:35:24.428Z,15.10
2017-10-10T23:38:26.743Z,14.30
2017-10-10T23:41:28.402Z,14.50
2017-10-10T23:44:29.933Z,13.70
2017-10-10T23:47:31.440Z,13.70
2017-10-10T23:50:32.978Z,14.00
2017-10-10T23:53:35.289Z,14.20
2017-10-10T23:56:36.919Z,13.70
2017-10-10T23:59:38.442Z,14.00
